Time;durP1;ratioP1;P1;durP2;ratioP2;P2;SDS_P1;SDS_P2;PMS_P1;PMS_P2;Temp;Humidity;BMP_temperature;BMP_pressure;BME280_temperature;BME280_humidity;BME280_pressure;Samples;Min_cycle;Max_cycle;Signal;HPM_P1;HPM_P2
2021/09/10 00:00:57;;;;;;;9.90;8.30;;;22.00;99.90;;;;;;4982154;28;20189;-69
2021/09/10 00:03:23;;;;;;;9.50;8.50;;;21.80;99.90;;;;;;4983787;28;20551;-69
2021/09/10 00:05:48;;;;;;;10.43;9.43;;;21.60;99.90;;;;;;4981589;28;20190;-68
2021/09/10 00:08:14;;;;;;;8.83;8.03;;;21.60;99.90;;;;;;4981211;28;20220;-68
2021/09/10 00:10:40;;;;;;;10.40;9.40;;;21.70;99.90;;;;;;4984694;28;20209;-68
2021/09/10 00:13:05;;;;;;;10.10;9.10;;;21.60;99.90;;;;;;4982391;28;20186;-69
2021/09/10 00:15:31;;;;;;;10.17;9.17;;;21.70;99.90;;;;;;4982791;28;20198;-69
2021/09/10 00:17:57;;;;;;;10.30;9.23;;;21.70;99.90;;;;;;4984555;28;20213;-69
2021/09/10 00:20:23;;;;;;;10.07;8.80;;;21.60;99.90;;;;;;4984773;28;20282;-69
2021/09/10 00:22:49;;;;;;;11.37;8.47;;;21.50;99.90;;;;;;4981657;28;20190;-69
2021/09/10 00:25:17;;;;;;;9.73;8.80;;;21.60;99.90;;;;;;4982391;28;20453;-69
2021/09/10 00:27:43;;;;;;;10.10;9.20;;;21.60;99.90;;;;;;4983116;28;20469;-69
2021/09/10 00:30:09;;;;;;;10.23;9.20;;;21.50;99.90;;;;;;4981816;28;20456;-68
2021/09/10 00:32:35;;;;;;;9.53;8.63;;;21.50;99.90;;;;;;4985626;28;20823;-69
2021/09/10 00:35:01;;;;;;;9.40;8.50;;;21.50;99.90;;;;;;4982665;28;20669;-69
2021/09/10 00:37:31;;;;;;;19.27;8.90;;;21.60;99.90;;;;;;4984056;28;20771;-69
2021/09/10 00:39:59;;;;;;;11.13;9.40;;;21.60;99.90;;;;;;4980712;28;20223;-68
2021/09/10 00:42:25;;;;;;;10.37;9.40;;;21.60;99.90;;;;;;4968649;28;20544;-68
2021/09/10 00:44:51;;;;;;;9.90;9.00;;;21.70;99.90;;;;;;4985067;28;20535;-68
2021/09/10 00:47:17;;;;;;;10.77;9.40;;;21.70;99.90;;;;;;4980438;28;20233;-68
2021/09/10 00:49:44;;;;;;;10.13;9.23;;;21.90;99.90;;;;;;4983698;28;20191;-68
2021/09/10 00:52:10;;;;;;;10.93;9.70;;;21.70;99.90;;;;;;4988178;28;20483;-68
2021/09/10 00:54:36;;;;;;;10.57;9.57;;;21.70;99.90;;;;;;4987235;28;20445;-68
2021/09/10 00:57:02;;;;;;;9.80;8.80;;;21.60;99.90;;;;;;4984314;28;20472;-68
2021/09/10 00:59:28;;;;;;;11.90;10.70;;;21.70;99.90;;;;;;4991889;28;20618;-68
2021/09/10 01:01:54;;;;;;;12.40;9.67;;;21.50;99.90;;;;;;4984607;28;20475;-69
2021/09/10 01:04:25;;;;;;;11.17;10.07;;;21.40;99.90;;;;;;4985254;28;20237;-69
2021/09/10 01:06:52;;;;;;;13.93;10.13;;;21.50;99.90;;;;;;4987648;28;20845;-68
2021/09/10 01:09:20;;;;;;;10.70;9.73;;;21.50;99.90;;;;;;4986560;28;20928;-69
2021/09/10 01:11:47;;;;;;;9.50;8.60;;;21.30;99.90;;;;;;4986446;28;20437;-69
2021/09/10 01:14:17;;;;;;;11.90;9.57;;;21.20;99.90;;;;;;4986334;28;20473;-67
2021/09/10 01:16:44;;;;;;;9.70;8.80;;;21.20;99.90;;;;;;4982303;28;20959;-66
2021/09/10 01:19:31;;;;;;;13.17;9.70;;;21.40;99.90;;;;;;4990997;28;20487;-68
2021/09/10 01:22:00;;;;;;;11.67;10.47;;;21.30;99.90;;;;;;4985468;28;20432;-67
2021/09/10 01:24:31;;;;;;;10.77;9.67;;;21.40;99.90;;;;;;5002952;28;20465;-68
2021/09/10 01:26:58;;;;;;;10.57;9.57;;;21.30;99.90;;;;;;4984475;28;20469;-68
2021/09/10 01:29:24;;;;;;;14.23;9.93;;;21.40;99.90;;;;;;4985582;28;20487;-68
2021/09/10 01:31:50;;;;;;;11.60;10.10;;;21.50;99.90;;;;;;4986320;28;20440;-68
2021/09/10 01:34:15;;;;;;;10.20;8.80;;;21.70;99.90;;;;;;4986086;28;20458;-70
2021/09/10 01:36:41;;;;;;;10.23;9.33;;;21.60;99.90;;;;;;4985205;28;20228;-68
2021/09/10 01:39:07;;;;;;;10.73;9.73;;;21.50;99.90;;;;;;4981363;28;20186;-68
2021/09/10 01:41:32;;;;;;;10.60;9.57;;;21.40;99.90;;;;;;4987369;28;20228;-68
2021/09/10 01:43:58;;;;;;;11.50;10.40;;;21.40;99.90;;;;;;4986628;28;20617;-67
2021/09/10 01:46:24;;;;;;;10.43;9.43;;;21.30;99.90;;;;;;4985135;28;20289;-67
2021/09/10 01:48:50;;;;;;;11.57;10.30;;;21.30;99.90;;;;;;4985868;28;20217;-68
2021/09/10 01:51:16;;;;;;;11.30;10.07;;;21.20;99.90;;;;;;4986430;28;20240;-69
2021/09/10 01:53:42;;;;;;;10.13;9.13;;;21.20;99.90;;;;;;4981115;28;20438;-67
2021/09/10 01:56:09;;;;;;;11.13;9.87;;;21.40;99.90;;;;;;4984229;28;20480;-67
2021/09/10 01:58:34;;;;;;;13.67;10.70;;;21.20;99.90;;;;;;4984939;28;20457;-67
2021/09/10 02:01:01;;;;;;;11.10;9.90;;;21.10;99.90;;;;;;4987036;28;20448;-67
2021/09/10 02:03:28;;;;;;;11.77;10.67;;;21.10;99.90;;;;;;4986874;28;20197;-69
2021/09/10 02:05:54;;;;;;;10.97;9.87;;;21.30;99.90;;;;;;4982411;28;20466;-68
2021/09/10 02:08:20;;;;;;;10.87;9.87;;;21.20;99.90;;;;;;4986959;28;20473;-67
2021/09/10 02:10:45;;;;;;;10.67;9.67;;;21.30;99.90;;;;;;4984927;28;20194;-68
2021/09/10 02:13:11;;;;;;;10.93;9.83;;;21.20;99.90;;;;;;4985080;28;20221;-68
2021/09/10 02:15:37;;;;;;;11.07;9.73;;;21.20;99.90;;;;;;4986948;28;20274;-69
2021/09/10 02:18:03;;;;;;;11.77;10.57;;;21.20;99.90;;;;;;4984996;28;20239;-68
2021/09/10 02:20:29;;;;;;;13.57;10.90;;;21.00;99.90;;;;;;4985323;28;20491;-68
2021/09/10 02:22:54;;;;;;;11.10;9.20;;;21.00;99.90;;;;;;4985728;28;20194;-68
2021/09/10 02:25:20;;;;;;;11.47;10.37;;;21.10;99.90;;;;;;4982872;28;20202;-68
2021/09/10 02:27:46;;;;;;;10.43;9.53;;;21.20;99.90;;;;;;4986650;28;20205;-68
2021/09/10 02:30:12;;;;;;;10.43;9.53;;;21.30;99.90;;;;;;4983378;28;20201;-67
2021/09/10 02:32:37;;;;;;;10.97;9.83;;;21.20;99.90;;;;;;4984416;28;20186;-68
2021/09/10 02:35:04;;;;;;;11.80;10.60;;;21.10;99.90;;;;;;4984211;28;20429;-69
2021/09/10 02:37:30;;;;;;;12.73;11.23;;;20.90;99.90;;;;;;4981170;28;20256;-68
2021/09/10 02:39:55;;;;;;;13.73;9.80;;;21.10;99.90;;;;;;4983951;28;20983;-68
2021/09/10 02:42:21;;;;;;;10.63;8.87;;;21.00;99.90;;;;;;4984608;28;20204;-69
2021/09/10 02:44:47;;;;;;;10.00;9.00;;;21.10;99.90;;;;;;4983377;28;20198;-67
2021/09/10 02:47:15;;;;;;;10.00;9.10;;;21.10;99.90;;;;;;4984055;28;20293;-69
2021/09/10 02:49:40;;;;;;;10.87;9.87;;;20.90;99.90;;;;;;4984826;28;20256;-69
2021/09/10 02:52:06;;;;;;;10.20;9.20;;;20.80;99.90;;;;;;4985658;28;20951;-68
2021/09/10 02:54:32;;;;;;;11.07;9.47;;;20.70;99.90;;;;;;4987278;28;20193;-68
2021/09/10 02:56:57;;;;;;;10.80;9.70;;;20.70;99.90;;;;;;4982346;28;20213;-68
2021/09/10 02:59:23;;;;;;;11.13;10.03;;;20.80;99.90;;;;;;4986260;28;20645;-68
2021/09/10 03:01:49;;;;;;;11.13;10.07;;;20.70;99.90;;;;;;4986322;28;20212;-69
2021/09/10 03:04:14;;;;;;;10.60;9.37;;;20.80;99.90;;;;;;4983087;28;20202;-69
2021/09/10 03:06:40;;;;;;;9.40;8.37;;;20.70;99.90;;;;;;4983642;28;20225;-68
2021/09/10 03:09:06;;;;;;;10.50;9.50;;;20.70;99.90;;;;;;4984925;28;20236;-68
2021/09/10 03:11:32;;;;;;;9.90;8.70;;;20.80;99.90;;;;;;4984059;28;20204;-67
2021/09/10 03:13:57;;;;;;;10.30;9.37;;;20.90;99.90;;;;;;4982796;28;20716;-68
2021/09/10 03:16:23;;;;;;;10.10;9.10;;;20.90;99.90;;;;;;4983156;28;20664;-67
2021/09/10 03:18:49;;;;;;;10.00;9.10;;;20.90;99.90;;;;;;4985178;28;20194;-69
2021/09/10 03:21:14;;;;;;;10.90;9.87;;;21.00;99.90;;;;;;4986236;28;20263;-69
2021/09/10 03:23:40;;;;;;;11.53;10.33;;;21.10;99.90;;;;;;4983365;28;20603;-68
2021/09/10 03:26:06;;;;;;;10.23;9.23;;;21.20;99.90;;;;;;4984385;28;20218;-68
2021/09/10 03:28:32;;;;;;;10.50;9.53;;;21.10;99.90;;;;;;4984922;28;20222;-68
2021/09/10 03:30:57;;;;;;;11.13;10.03;;;21.20;99.90;;;;;;4980374;28;20308;-68
2021/09/10 03:33:23;;;;;;;8.70;8.00;;;21.20;99.90;;;;;;4986286;28;20438;-68
2021/09/10 03:35:50;;;;;;;9.80;8.90;;;21.30;99.90;;;;;;4984874;28;20193;-68
2021/09/10 03:38:16;;;;;;;10.40;9.40;;;21.30;99.90;;;;;;4980924;28;20292;-69
2021/09/10 03:40:41;;;;;;;9.00;8.20;;;21.30;99.90;;;;;;4968869;28;20523;-67
2021/09/10 03:43:08;;;;;;;10.03;9.13;;;21.20;99.90;;;;;;4983265;28;20387;-68
2021/09/10 03:45:34;;;;;;;10.37;9.27;;;21.30;99.90;;;;;;4985845;28;20730;-67
2021/09/10 03:48:00;;;;;;;9.87;8.90;;;21.40;99.90;;;;;;4985297;28;20465;-67
2021/09/10 03:50:25;;;;;;;10.83;9.70;;;21.40;99.90;;;;;;4985308;28;20818;-68
2021/09/10 03:52:51;;;;;;;11.07;9.90;;;21.30;99.90;;;;;;4984114;28;20202;-67
2021/09/10 03:55:17;;;;;;;11.00;9.90;;;21.30;99.90;;;;;;4983518;28;20244;-68
2021/09/10 03:57:43;;;;;;;11.43;10.30;;;21.20;99.90;;;;;;4982378;28;20275;-68
2021/09/10 04:00:09;;;;;;;11.30;10.23;;;21.30;99.90;;;;;;4986609;28;20445;-68
2021/09/10 04:02:35;;;;;;;9.57;8.67;;;21.30;99.90;;;;;;4981267;28;20201;-68
2021/09/10 04:05:07;;;;;;;9.73;8.83;;;21.30;99.90;;;;;;4985382;28;20433;-69
2021/09/10 04:07:33;;;;;;;10.37;9.30;;;21.40;99.90;;;;;;4984048;28;20694;-69
2021/09/10 04:09:59;;;;;;;10.83;9.83;;;21.40;99.90;;;;;;4998114;28;20823;-69
2021/09/10 04:12:28;;;;;;;11.50;10.30;;;21.50;99.90;;;;;;4980157;28;20457;-68
2021/09/10 04:14:54;;;;;;;11.00;10.00;;;21.70;99.90;;;;;;4985941;28;20201;-68
2021/09/10 04:17:20;;;;;;;10.23;9.33;;;21.50;99.90;;;;;;4984439;28;20452;-68
2021/09/10 04:19:46;;;;;;;10.80;9.80;;;21.30;99.90;;;;;;4982755;28;20446;-68
2021/09/10 04:22:14;;;;;;;10.60;9.60;;;21.40;99.90;;;;;;4983283;28;20193;-68
2021/09/10 04:24:39;;;;;;;10.27;9.27;;;21.50;99.90;;;;;;4978431;28;20294;-67
2021/09/10 04:27:05;;;;;;;11.10;10.00;;;21.50;99.90;;;;;;4983277;28;20575;-68
2021/09/10 04:29:31;;;;;;;10.70;9.67;;;21.40;99.90;;;;;;4982126;28;20197;-69
2021/09/10 04:31:56;;;;;;;10.70;9.70;;;21.40;99.90;;;;;;4979941;28;20205;-69
2021/09/10 04:34:22;;;;;;;10.97;9.80;;;21.50;99.90;;;;;;4984953;28;20204;-69
2021/09/10 04:36:50;;;;;;;11.07;10.03;;;21.30;99.90;;;;;;4979284;28;20638;-69
2021/09/10 04:39:16;;;;;;;9.87;8.90;;;21.10;99.90;;;;;;4983235;28;20197;-69
2021/09/10 04:41:42;;;;;;;10.47;9.57;;;21.10;99.90;;;;;;4984542;28;20437;-68
2021/09/10 04:44:07;;;;;;;12.17;9.20;;;21.30;99.90;;;;;;4981949;28;20598;-69
2021/09/10 04:46:33;;;;;;;10.40;9.40;;;21.20;99.90;;;;;;4986219;28;20213;-69
2021/09/10 04:48:59;;;;;;;11.00;9.60;;;21.10;99.90;;;;;;4982701;28;20201;-70
2021/09/10 04:51:24;;;;;;;10.93;9.93;;;21.20;99.90;;;;;;4984856;28;20264;-69
2021/09/10 04:53:50;;;;;;;10.50;9.60;;;21.30;99.90;;;;;;4985233;28;20226;-70
2021/09/10 04:56:16;;;;;;;9.97;9.07;;;21.20;99.90;;;;;;4980950;28;20763;-68
2021/09/10 04:58:42;;;;;;;11.60;10.40;;;21.30;99.90;;;;;;4986379;28;20499;-70
2021/09/10 05:01:07;;;;;;;11.47;10.07;;;21.10;99.90;;;;;;4987298;28;20190;-69
2021/09/10 05:03:33;;;;;;;14.80;10.30;;;21.20;99.90;;;;;;4984526;28;20204;-68
2021/09/10 05:05:59;;;;;;;10.63;9.73;;;21.00;99.90;;;;;;4982350;28;20214;-69
2021/09/10 05:08:24;;;;;;;11.00;10.00;;;20.70;99.90;;;;;;4983186;28;20637;-69
2021/09/10 05:10:50;;;;;;;17.90;11.50;;;20.80;99.90;;;;;;4979528;28;21245;-69
2021/09/10 05:13:16;;;;;;;11.73;9.80;;;20.70;99.90;;;;;;4984734;28;20194;-69
2021/09/10 05:15:41;;;;;;;10.80;9.40;;;20.70;99.90;;;;;;4982715;28;20229;-69
2021/09/10 05:18:07;;;;;;;10.50;8.80;;;20.70;99.90;;;;;;4981061;28;20312;-70
2021/09/10 05:20:33;;;;;;;9.83;8.83;;;20.60;99.90;;;;;;4986810;28;20193;-69
2021/09/10 05:22:58;;;;;;;10.80;9.77;;;20.60;99.90;;;;;;4977676;28;20197;-70
2021/09/10 05:25:24;;;;;;;12.67;9.80;;;20.70;99.90;;;;;;4982135;28;20205;-70
2021/09/10 05:27:50;;;;;;;11.10;10.00;;;20.60;99.90;;;;;;4985162;28;20759;-68
2021/09/10 05:30:16;;;;;;;10.23;9.00;;;20.40;99.90;;;;;;4981445;28;20198;-68
2021/09/10 05:32:41;;;;;;;10.00;8.97;;;20.20;99.90;;;;;;4984759;28;20215;-70
2021/09/10 05:35:09;;;;;;;10.40;9.03;;;20.30;99.90;;;;;;4981141;28;20193;-69
2021/09/10 05:37:35;;;;;;;9.23;8.33;;;20.10;99.90;;;;;;4955293;28;20720;-70
2021/09/10 05:40:05;;;;;;;10.20;9.20;;;20.10;99.90;;;;;;4985570;28;20445;-69
2021/09/10 05:42:30;;;;;;;9.37;8.57;;;20.10;99.90;;;;;;4987350;28;20202;-68
2021/09/10 05:44:56;;;;;;;9.33;8.43;;;19.90;99.90;;;;;;4981371;28;20472;-67
2021/09/10 05:47:22;;;;;;;8.40;7.60;;;19.80;99.90;;;;;;4989428;28;20221;-68
2021/09/10 05:49:47;;;;;;;9.70;8.70;;;19.90;99.90;;;;;;4986516;28;20576;-68
2021/09/10 05:52:13;;;;;;;10.67;8.83;;;19.90;99.90;;;;;;4987803;28;20208;-68
2021/09/10 05:54:38;;;;;;;8.80;7.60;;;19.90;99.90;;;;;;4987971;28;20232;-68
2021/09/10 05:57:07;;;;;;;9.30;8.33;;;20.00;99.90;;;;;;4984449;28;20766;-68
2021/09/10 05:59:33;;;;;;;11.77;9.37;;;20.20;99.90;;;;;;4985511;28;20682;-69
2021/09/10 06:01:59;;;;;;;13.90;9.87;;;20.20;99.90;;;;;;4986681;28;20454;-69
2021/09/10 06:04:24;;;;;;;10.63;9.53;;;20.30;99.90;;;;;;4982966;28;20853;-69
2021/09/10 06:06:50;;;;;;;11.20;9.07;;;20.50;99.90;;;;;;4982671;28;20287;-71
2021/09/10 06:09:16;;;;;;;10.17;9.20;;;20.50;99.90;;;;;;4967435;28;20355;-68
2021/09/10 06:11:43;;;;;;;9.97;8.43;;;20.50;99.90;;;;;;4984929;28;20646;-69
2021/09/10 06:14:17;;;;;;;10.10;9.10;;;20.70;99.90;;;;;;4985522;28;20489;-69
2021/09/10 06:16:42;;;;;;;12.10;9.00;;;20.70;99.90;;;;;;4985701;28;20451;-68
2021/09/10 06:19:08;;;;;;;9.80;8.80;;;20.70;99.90;;;;;;4985361;28;20952;-69
2021/09/10 06:21:34;;;;;;;11.80;9.40;;;20.80;99.90;;;;;;4985515;28;20791;-68
2021/09/10 06:23:59;;;;;;;10.57;9.10;;;20.90;99.90;;;;;;4983928;28;20224;-68
2021/09/10 06:26:25;;;;;;;10.47;8.07;;;20.90;99.90;;;;;;4985625;28;20209;-68
2021/09/10 06:28:51;;;;;;;9.30;8.30;;;20.80;99.90;;;;;;4985462;28;20217;-67
2021/09/10 06:31:19;;;;;;;8.73;7.93;;;20.80;99.90;;;;;;4987060;28;20288;-68
2021/09/10 06:33:45;;;;;;;11.47;9.03;;;20.90;99.90;;;;;;4984126;28;20593;-68
2021/09/10 06:36:11;;;;;;;10.27;9.27;;;20.70;99.90;;;;;;4981503;28;20477;-68
2021/09/10 06:38:36;;;;;;;9.17;8.27;;;20.70;99.90;;;;;;4984224;28;20268;-67
2021/09/10 06:41:02;;;;;;;10.03;9.13;;;20.80;99.90;;;;;;4985762;28;20194;-69
2021/09/10 06:43:27;;;;;;;9.63;8.67;;;20.80;99.90;;;;;;4983496;28;20217;-69
2021/09/10 06:45:53;;;;;;;9.30;8.50;;;20.90;99.90;;;;;;4985678;28;20218;-69
2021/09/10 06:48:19;;;;;;;10.97;8.60;;;20.80;99.90;;;;;;4985068;28;20218;-69
2021/09/10 06:50:44;;;;;;;9.70;8.80;;;20.80;99.90;;;;;;4984129;28;20189;-68
2021/09/10 06:53:10;;;;;;;9.73;8.53;;;20.90;99.90;;;;;;4983244;28;20257;-69
2021/09/10 06:55:37;;;;;;;10.13;8.20;;;20.80;99.90;;;;;;4980258;28;20186;-68
2021/09/10 06:58:02;;;;;;;10.47;8.60;;;21.00;99.90;;;;;;4984696;28;20194;-68
2021/09/10 07:00:28;;;;;;;12.00;9.53;;;21.00;99.90;;;;;;4987166;28;20444;-67
2021/09/10 07:02:54;;;;;;;11.10;8.73;;;21.00;99.90;;;;;;4981360;28;20289;-68
2021/09/10 07:05:20;;;;;;;11.30;10.20;;;20.90;99.90;;;;;;4985080;28;20321;-68
2021/09/10 07:07:45;;;;;;;13.40;8.47;;;20.90;99.90;;;;;;4987343;28;20699;-68
2021/09/10 07:10:11;;;;;;;10.57;8.43;;;21.00;99.90;;;;;;4984376;28;20186;-68
2021/09/10 07:12:37;;;;;;;10.20;9.20;;;21.10;99.90;;;;;;4983598;28;20186;-70
2021/09/10 07:15:04;;;;;;;12.43;9.23;;;21.00;99.90;;;;;;4975165;28;20186;-68
2021/09/10 07:17:32;;;;;;;11.67;9.00;;;21.00;99.90;;;;;;4987202;28;20461;-69
2021/09/10 07:19:58;;;;;;;9.23;8.30;;;21.10;99.90;;;;;;4983400;28;20583;-69
2021/09/10 07:22:25;;;;;;;10.40;9.40;;;21.10;99.90;;;;;;4983034;28;20440;-69
2021/09/10 07:24:51;;;;;;;9.63;8.60;;;21.20;99.90;;;;;;5004835;23;21100;-60
2021/09/10 07:27:17;;;;;;;9.73;8.80;;;21.20;99.90;;;;;;5005338;28;20480;-61
2021/09/10 07:29:42;;;;;;;10.27;9.00;;;21.30;99.90;;;;;;5001178;28;20212;-61
2021/09/10 07:32:08;;;;;;;10.90;9.80;;;21.30;99.90;;;;;;5005960;28;20250;-60
2021/09/10 07:34:34;;;;;;;10.73;9.63;;;21.30;99.90;;;;;;5001917;28;20648;-60
2021/09/10 07:37:00;;;;;;;10.30;9.30;;;21.40;99.90;;;;;;5001658;28;20720;-60
2021/09/10 07:39:26;;;;;;;11.37;8.40;;;21.40;99.90;;;;;;5005321;28;20664;-60
2021/09/10 07:41:52;;;;;;;11.13;9.97;;;21.40;99.90;;;;;;5001231;28;20216;-61
2021/09/10 07:44:17;;;;;;;11.40;10.00;;;21.60;99.90;;;;;;5004745;28;20460;-62
2021/09/10 07:46:45;;;;;;;9.40;8.50;;;21.60;99.90;;;;;;5001964;28;20244;-62
2021/09/10 07:49:11;;;;;;;9.47;8.67;;;21.60;99.90;;;;;;5003194;28;20360;-61
2021/09/10 07:51:37;;;;;;;13.33;8.57;;;21.60;99.90;;;;;;5005578;28;20440;-60
2021/09/10 07:54:06;;;;;;;9.47;7.93;;;21.60;99.90;;;;;;5003949;28;20438;-60
2021/09/10 07:56:32;;;;;;;10.77;9.67;;;21.60;99.90;;;;;;5003280;28;20550;-60
2021/09/10 07:58:58;;;;;;;9.53;8.53;;;21.60;99.90;;;;;;5007302;28;20515;-60
2021/09/10 08:01:24;;;;;;;9.77;8.53;;;21.50;99.90;;;;;;5000507;28;20188;-59
2021/09/10 08:03:50;;;;;;;11.07;9.87;;;21.50;99.90;;;;;;5005879;28;20459;-59
2021/09/10 08:06:15;;;;;;;11.00;8.70;;;21.50;99.90;;;;;;5003578;28;20613;-59
2021/09/10 08:08:41;;;;;;;15.10;9.17;;;21.50;99.90;;;;;;4998027;28;20214;-61
2021/09/10 08:11:07;;;;;;;12.60;9.30;;;21.40;99.90;;;;;;5007904;28;20177;-61
2021/09/10 08:13:33;;;;;;;10.67;8.53;;;21.30;99.90;;;;;;5004660;28;20203;-61
2021/09/10 08:15:58;;;;;;;10.43;9.03;;;21.40;99.90;;;;;;5003858;28;20746;-61
2021/09/10 08:18:24;;;;;;;10.07;7.70;;;21.40;99.90;;;;;;5008548;28;20325;-62
2021/09/10 08:20:50;;;;;;;10.37;8.93;;;21.40;99.90;;;;;;5000116;28;20189;-61
2021/09/10 08:23:15;;;;;;;9.37;7.57;;;21.40;99.90;;;;;;5006642;28;20275;-61
2021/09/10 08:25:41;;;;;;;10.10;9.10;;;21.50;99.90;;;;;;5014407;28;20195;-61
2021/09/10 08:28:07;;;;;;;8.37;7.57;;;21.70;99.90;;;;;;4998219;28;20623;-60
2021/09/10 08:30:33;;;;;;;9.37;7.53;;;21.70;99.90;;;;;;5004967;28;20420;-60
2021/09/10 08:32:59;;;;;;;8.73;7.93;;;21.80;99.90;;;;;;4998917;28;20256;-60
2021/09/10 08:35:25;;;;;;;8.27;7.33;;;21.90;99.90;;;;;;4998268;28;20452;-61
2021/09/10 08:37:51;;;;;;;8.10;7.40;;;22.00;99.90;;;;;;5006185;28;20568;-61
2021/09/10 08:40:18;;;;;;;10.90;7.73;;;22.00;99.90;;;;;;5002625;28;20432;-60
2021/09/10 08:42:45;;;;;;;8.53;7.57;;;22.00;99.90;;;;;;4999637;28;20185;-61
2021/09/10 08:45:16;;;;;;;9.10;8.20;;;21.90;99.90;;;;;;4993821;28;20462;-61
2021/09/10 08:47:43;;;;;;;8.93;8.10;;;22.00;99.90;;;;;;5003775;28;20498;-62
2021/09/10 08:50:10;;;;;;;8.73;7.80;;;22.00;99.90;;;;;;4998247;28;20862;-62
2021/09/10 08:52:36;;;;;;;9.80;8.90;;;22.20;99.90;;;;;;4999742;28;20451;-62
2021/09/10 08:55:04;;;;;;;9.30;8.40;;;22.20;99.90;;;;;;4997588;28;20496;-62
2021/09/10 08:57:31;;;;;;;11.40;8.17;;;22.10;99.90;;;;;;4998734;28;20456;-59
2021/09/10 09:00:07;;;;;;;9.10;8.00;;;22.10;99.90;;;;;;4996665;28;20436;-59
2021/09/10 09:02:33;;;;;;;9.40;8.50;;;22.10;99.90;;;;;;5000547;28;20447;-59
2021/09/10 09:04:59;;;;;;;9.63;8.63;;;22.10;99.90;;;;;;5000607;28;20436;-59
2021/09/10 09:07:28;;;;;;;9.00;8.20;;;22.20;99.90;;;;;;5005214;28;20896;-59
2021/09/10 09:09:59;;;;;;;14.07;8.77;;;22.30;99.90;;;;;;5001416;28;20276;-59
2021/09/10 09:12:31;;;;;;;9.70;8.80;;;22.40;99.90;;;;;;5003234;28;20427;-59
2021/09/10 09:14:59;;;;;;;8.90;8.00;;;22.50;99.90;;;;;;5006233;28;20509;-59
2021/09/10 09:17:38;;;;;;;10.23;9.10;;;22.50;99.90;;;;;;5005441;28;20478;-59
2021/09/10 09:20:17;;;;;;;9.27;8.47;;;22.40;99.90;;;;;;5006325;28;20822;-59
2021/09/10 09:23:00;;;;;;;10.10;9.03;;;22.40;99.90;;;;;;5009773;28;20797;-59
2021/09/10 09:25:32;;;;;;;9.17;8.27;;;22.30;99.90;;;;;;5003296;28;20570;-59
2021/09/10 09:28:18;;;;;;;10.80;9.70;;;22.20;99.90;;;;;;5001599;28;20475;-59
2021/09/10 09:30:45;;;;;;;9.93;8.80;;;22.20;99.90;;;;;;5005194;28;20833;-58
2021/09/10 09:33:14;;;;;;;9.20;8.30;;;22.30;99.90;;;;;;5005179;28;20500;-59
2021/09/10 09:35:41;;;;;;;8.57;7.77;;;22.30;99.90;;;;;;5003412;28;20810;-59
2021/09/10 09:38:14;;;;;;;9.27;8.27;;;22.40;99.90;;;;;;5010023;28;20450;-62
2021/09/10 09:40:41;;;;;;;9.47;8.67;;;22.40;99.90;;;;;;5004946;28;20499;-61
2021/09/10 09:43:16;;;;;;;8.03;7.33;;;22.40;99.90;;;;;;5005869;28;20975;-59
2021/09/10 09:45:44;;;;;;;9.50;7.53;;;22.60;99.90;;;;;;5001675;28;20443;-61
2021/09/10 09:48:11;;;;;;;10.13;7.93;;;22.70;99.90;;;;;;5003695;28;20495;-59
2021/09/10 09:50:37;;;;;;;7.83;7.13;;;22.90;99.90;;;;;;5000480;28;20462;-59
2021/09/10 09:53:03;;;;;;;8.87;8.00;;;23.00;99.90;;;;;;4999390;28;20512;-60
2021/09/10 09:55:29;;;;;;;22.90;8.97;;;23.10;99.90;;;;;;4998629;28;20532;-60
2021/09/10 09:57:57;;;;;;;8.50;7.60;;;23.10;99.90;;;;;;5000569;28;20460;-61
2021/09/10 10:00:23;;;;;;;8.83;8.03;;;23.10;99.90;;;;;;5008327;28;20671;-61
2021/09/10 10:02:49;;;;;;;8.63;7.77;;;23.20;99.90;;;;;;5005501;28;20808;-59
2021/09/10 10:05:18;;;;;;;8.17;7.47;;;23.30;99.90;;;;;;5008952;28;20432;-61
2021/09/10 10:08:00;;;;;;;12.30;8.13;;;23.20;99.90;;;;;;5003113;28;20213;-61
2021/09/10 10:10:28;;;;;;;9.30;8.40;;;23.20;99.90;;;;;;5001463;28;20467;-62
2021/09/10 10:12:55;;;;;;;9.47;8.57;;;23.10;99.90;;;;;;5005175;28;20428;-62
2021/09/10 10:15:27;;;;;;;8.97;8.07;;;23.10;99.90;;;;;;5005344;28;20435;-62
2021/09/10 10:17:55;;;;;;;9.50;7.90;;;23.10;99.90;;;;;;5005637;28;20447;-59
2021/09/10 10:20:43;;;;;;;8.40;7.70;;;23.10;99.90;;;;;;5004834;28;20782;-59
2021/09/10 10:23:46;;;;;;;8.60;7.80;;;23.10;99.90;;;;;;4997592;28;20440;-59
2021/09/10 10:26:19;;;;;;;9.53;7.90;;;23.10;99.90;;;;;;5008516;28;20462;-62
2021/09/10 10:28:50;;;;;;;8.40;7.60;;;23.20;99.90;;;;;;5001078;28;20467;-60
2021/09/10 10:31:17;;;;;;;8.70;7.80;;;23.20;99.90;;;;;;5002645;28;20481;-59
2021/09/10 10:34:03;;;;;;;8.13;7.33;;;23.20;99.90;;;;;;5008876;28;20479;-61
2021/09/10 10:36:37;;;;;;;10.20;7.90;;;23.10;99.90;;;;;;5000516;28;21061;-61
2021/09/10 10:39:13;;;;;;;10.10;8.03;;;23.10;99.90;;;;;;5004119;28;20423;-60
2021/09/10 10:41:46;;;;;;;8.63;7.30;;;23.10;99.90;;;;;;5006268;28;20466;-60
2021/09/10 10:44:32;;;;;;;8.60;7.70;;;23.20;99.90;;;;;;5001949;28;20443;-61
2021/09/10 10:47:08;;;;;;;10.77;8.60;;;23.20;99.90;;;;;;5004720;28;20519;-60
2021/09/10 10:49:43;;;;;;;8.63;7.93;;;23.10;99.90;;;;;;5005670;28;20435;-60
2021/09/10 10:52:30;;;;;;;8.80;7.90;;;23.10;99.90;;;;;;5000685;28;20994;-60
2021/09/10 10:55:16;;;;;;;8.30;7.60;;;23.10;99.90;;;;;;5003667;28;20432;-61
2021/09/10 10:57:42;;;;;;;9.23;8.20;;;23.10;99.90;;;;;;5005597;28;21077;-62
2021/09/10 11:00:32;;;;;;;8.73;7.93;;;23.00;99.90;;;;;;5003497;28;20531;-60
2021/09/10 11:03:13;;;;;;;9.00;8.20;;;23.00;99.90;;;;;;5001432;28;20189;-62
2021/09/10 11:05:50;;;;;;;10.57;9.67;;;23.00;99.90;;;;;;5006859;28;20419;-60
2021/09/10 11:08:35;;;;;;;9.13;8.30;;;23.10;99.90;;;;;;5001287;28;20455;-61
2021/09/10 11:11:01;;;;;;;9.37;8.47;;;23.10;99.90;;;;;;5003123;28;20435;-61
2021/09/10 11:13:30;;;;;;;9.73;8.73;;;23.10;99.90;;;;;;5008636;28;20535;-63
2021/09/10 11:15:56;;;;;;;9.63;8.73;;;23.10;99.90;;;;;;5004549;28;20331;-62
2021/09/10 11:18:25;;;;;;;8.30;7.50;;;23.30;99.90;;;;;;5001095;28;20946;-62
2021/09/10 11:20:53;;;;;;;9.97;8.97;;;23.50;99.90;;;;;;5004031;28;20464;-62
2021/09/10 11:23:37;;;;;;;10.00;9.00;;;23.60;99.90;;;;;;5003798;28;20949;-62
2021/09/10 11:26:09;;;;;;;11.17;8.83;;;23.60;99.90;;;;;;4999933;28;20887;-62
2021/09/10 11:28:36;;;;;;;9.60;8.70;;;23.90;99.90;;;;;;5002140;28;20530;-63
2021/09/10 11:31:03;;;;;;;9.23;8.33;;;24.20;99.90;;;;;;5005299;28;20779;-63
2021/09/10 11:33:51;;;;;;;9.67;8.77;;;24.50;99.90;;;;;;4999445;28;20433;-63
2021/09/10 11:36:27;;;;;;;10.03;9.03;;;24.50;99.90;;;;;;5002829;28;20460;-63
2021/09/10 11:39:04;;;;;;;9.27;8.47;;;24.70;99.90;;;;;;5006108;28;20454;-62
2021/09/10 11:41:30;;;;;;;8.97;8.13;;;24.90;99.90;;;;;;5003354;28;20523;-60
2021/09/10 11:44:05;;;;;;;9.83;8.83;;;24.70;99.90;;;;;;5002086;28;20464;-60
2021/09/10 11:46:31;;;;;;;9.23;8.33;;;25.00;99.90;;;;;;5004518;28;20467;-59
2021/09/10 11:48:59;;;;;;;9.93;8.93;;;25.00;99.90;;;;;;4999571;28;20578;-59
2021/09/10 11:51:43;;;;;;;10.43;9.40;;;24.90;99.90;;;;;;5004565;28;20612;-60
2021/09/10 11:54:11;;;;;;;10.30;9.30;;;25.00;99.90;;;;;;5002649;28;20511;-62
2021/09/10 11:56:37;;;;;;;9.80;8.90;;;25.20;99.90;;;;;;5001720;28;20513;-62
2021/09/10 11:59:32;;;;;;;9.53;8.57;;;25.30;99.90;;;;;;5001092;28;20440;-62
2021/09/10 12:01:58;;;;;;;9.93;9.03;;;25.20;99.90;;;;;;5005600;28;20857;-61
2021/09/10 12:04:27;;;;;;;10.37;8.90;;;25.30;99.90;;;;;;5001942;28;20428;-62
2021/09/10 12:06:58;;;;;;;10.67;8.13;;;25.30;99.90;;;;;;5000662;28;20217;-61
2021/09/10 12:09:27;;;;;;;9.93;8.03;;;25.30;99.90;;;;;;5004677;28;20883;-61
2021/09/10 12:12:14;;;;;;;8.87;8.07;;;25.20;99.90;;;;;;5003609;28;20478;-62
2021/09/10 12:14:43;;;;;;;8.93;8.17;;;25.00;99.90;;;;;;4998979;28;20444;-61
2021/09/10 12:17:23;;;;;;;8.93;8.03;;;24.90;99.90;;;;;;5005045;28;20452;-62
2021/09/10 12:19:55;;;;;;;9.40;8.50;;;24.80;99.90;;;;;;5003440;28;20465;-60
2021/09/10 12:22:32;;;;;;;9.13;8.23;;;24.70;99.90;;;;;;5001428;28;20429;-60
2021/09/10 12:25:28;;;;;;;9.37;8.60;;;24.60;99.90;;;;;;5005931;28;20447;-61
2021/09/10 12:27:57;;;;;;;9.73;8.73;;;24.30;99.90;;;;;;5002741;28;20472;-59
2021/09/10 12:30:25;;;;;;;10.47;9.47;;;24.10;99.90;;;;;;5004115;28;20443;-60
2021/09/10 12:32:51;;;;;;;9.97;8.93;;;24.00;99.90;;;;;;5004341;28;20922;-60
2021/09/10 12:35:17;;;;;;;9.63;8.73;;;24.00;99.90;;;;;;5002556;28;20499;-59
2021/09/10 12:38:09;;;;;;;12.60;8.67;;;23.90;99.90;;;;;;5000735;28;20213;-61
2021/09/10 12:40:38;;;;;;;10.70;8.60;;;23.90;99.90;;;;;;4999985;28;20433;-62
2021/09/10 12:43:05;;;;;;;10.80;9.90;;;23.90;99.90;;;;;;5002264;28;20428;-61
2021/09/10 12:45:32;;;;;;;10.50;9.50;;;24.00;99.90;;;;;;4997480;28;20809;-62